createdAt,value
2022-08-14T00:02:27.697Z,17.14
2022-08-14T00:04:55.902Z,17.08
2022-08-14T00:07:24.057Z,17.03
2022-08-14T00:10:01.736Z,17.01
2022-08-14T00:12:53.476Z,16.95
2022-08-14T00:15:43.932Z,16.91
2022-08-14T00:18:30.875Z,16.91
2022-08-14T00:21:05.031Z,16.90
2022-08-14T00:23:40.089Z,16.88
2022-08-14T00:26:08.504Z,16.87
2022-08-14T00:28:53.517Z,16.90
2022-08-14T00:31:44.454Z,16.91
2022-08-14T00:34:36.465Z,16.94
2022-08-14T00:37:02.000Z,16.92
2022-08-14T00:39:30.487Z,16.91
2022-08-14T00:41:58.724Z,16.92
2022-08-14T00:44:32.000Z,16.92
2022-08-14T00:47:11.000Z,16.92
2022-08-14T00:49:42.958Z,16.92
2022-08-14T00:52:14.204Z,16.91
2022-08-14T00:54:49.799Z,16.91
2022-08-14T00:57:20.330Z,16.88
2022-08-14T00:59:49.138Z,16.87
2022-08-14T01:02:24.731Z,16.84
2022-08-14T01:05:00.873Z,16.82
2022-08-14T01:07:38.954Z,16.81
2022-08-14T01:10:18.722Z,16.82
2022-08-14T01:12:48.958Z,16.83
2022-08-14T01:15:18.823Z,16.81
2022-08-14T01:18:05.585Z,16.80
2022-08-14T01:20:53.046Z,16.76
2022-08-14T01:23:21.705Z,16.77
2022-08-14T01:25:51.704Z,16.76
2022-08-14T01:28:47.046Z,16.77
2022-08-14T01:31:15.766Z,16.75
2022-08-14T01:35:15.773Z,16.74
2022-08-14T01:36:39.687Z,16.74
2022-08-14T01:39:13.485Z,16.71
2022-08-14T01:41:49.217Z,16.67
2022-08-14T01:44:32.528Z,16.63
2022-08-14T01:47:21.665Z,16.60
2022-08-14T01:50:01.286Z,16.58
2022-08-14T01:52:58.613Z,16.57
2022-08-14T01:55:32.428Z,16.55
2022-08-14T01:58:19.960Z,16.55
2022-08-14T02:00:55.541Z,16.53
2022-08-14T02:03:29.938Z,16.49
2022-08-14T02:06:00.083Z,16.45
2022-08-14T02:08:34.677Z,16.43
2022-08-14T02:11:24.711Z,16.45
2022-08-14T02:13:59.027Z,16.46
2022-08-14T02:16:34.217Z,16.50
2022-08-14T02:19:06.183Z,16.50
2022-08-14T02:21:47.073Z,16.40
2022-08-14T02:24:38.854Z,16.38
2022-08-14T02:28:22.426Z,16.35
2022-08-14T02:30:02.178Z,16.35
2022-08-14T02:32:46.757Z,16.33
2022-08-14T02:35:19.256Z,16.34
2022-08-14T02:37:50.225Z,16.33
2022-08-14T02:40:21.053Z,16.31
2022-08-14T02:43:07.570Z,16.25
2022-08-14T02:45:44.783Z,16.21
2022-08-14T02:49:01.856Z,16.16
2022-08-14T02:51:12.015Z,16.13
2022-08-14T02:53:42.943Z,16.11
2022-08-14T02:56:30.756Z,16.09
2022-08-14T02:59:06.522Z,16.09
2022-08-14T03:01:43.460Z,16.07
2022-08-14T03:04:20.685Z,16.00
2022-08-14T03:06:57.590Z,15.94
2022-08-14T03:09:41.713Z,15.89
2022-08-14T03:12:17.826Z,15.88
2022-08-14T03:14:59.108Z,15.87
2022-08-14T03:17:31.972Z,15.86
2022-08-14T03:20:11.831Z,15.82
2022-08-14T03:22:42.311Z,15.81
2022-08-14T03:25:12.364Z,15.83
2022-08-14T03:27:48.017Z,15.83
2022-08-14T03:30:37.219Z,15.84
2022-08-14T03:33:12.668Z,15.84
2022-08-14T03:36:00.369Z,15.86
2022-08-14T03:39:12.463Z,15.97
2022-08-14T03:41:23.025Z,16.00
2022-08-14T03:43:57.732Z,16.01
2022-08-14T03:46:52.023Z,16.04
2022-08-14T03:49:29.227Z,16.06
2022-08-14T03:52:00.803Z,16.08
2022-08-14T03:54:30.191Z,16.16
2022-08-14T03:57:02.926Z,16.21
2022-08-14T03:59:35.404Z,16.25
2022-08-14T04:02:31.742Z,16.28
2022-08-14T04:04:53.498Z,16.27
2022-08-14T04:07:22.555Z,16.27
2022-08-14T04:09:50.866Z,16.31
2022-08-14T04:12:26.080Z,16.40
2022-08-14T04:14:55.160Z,16.48
2022-08-14T04:17:23.200Z,16.56
2022-08-14T04:19:53.742Z,16.63
2022-08-14T04:22:22.518Z,16.68
2022-08-14T04:24:50.740Z,16.68
2022-08-14T04:27:19.109Z,16.71
2022-08-14T04:29:47.107Z,16.73
2022-08-14T04:33:00.015Z,16.80
2022-08-14T04:35:07.605Z,16.91
2022-08-14T04:37:57.272Z,16.93
2022-08-14T04:40:43.975Z,16.99
2022-08-14T04:43:38.963Z,17.04
2022-08-14T04:46:57.113Z,17.03
2022-08-14T04:49:03.970Z,17.06
2022-08-14T04:51:46.949Z,17.05
2022-08-14T04:54:27.091Z,17.05
2022-08-14T04:56:56.739Z,17.06
2022-08-14T04:59:25.714Z,17.10
2022-08-14T05:01:57.230Z,17.15
2022-08-14T05:04:25.799Z,17.21
2022-08-14T05:06:55.173Z,17.22
2022-08-14T05:09:29.152Z,17.22
2022-08-14T05:13:10.785Z,17.25
2022-08-14T05:14:55.143Z,17.30
2022-08-14T05:17:32.249Z,17.35
2022-08-14T05:21:10.860Z,17.40
2022-08-14T05:23:01.953Z,17.53
2022-08-14T05:25:30.987Z,17.64
2022-08-14T05:28:19.354Z,17.75
2022-08-14T05:30:51.204Z,17.84
2022-08-14T05:33:21.520Z,17.97
2022-08-14T05:35:51.034Z,18.04
2022-08-14T05:38:31.127Z,18.17
2022-08-14T05:41:02.683Z,18.22
2022-08-14T05:43:41.626Z,18.31
2022-08-14T05:46:15.659Z,18.41
2022-08-14T05:48:51.699Z,18.50
2022-08-14T05:51:21.104Z,18.61
2022-08-14T05:54:01.496Z,18.69
2022-08-14T05:56:38.469Z,18.83
2022-08-14T05:59:07.231Z,18.92
2022-08-14T06:01:35.677Z,19.02
2022-08-14T06:04:05.216Z,19.09
2022-08-14T06:06:38.068Z,19.16
2022-08-14T06:09:09.887Z,19.25
2022-08-14T06:11:38.275Z,19.33
2022-08-14T06:14:21.134Z,19.41
2022-08-14T06:16:53.239Z,19.50
2022-08-14T06:19:23.368Z,19.61
2022-08-14T06:21:58.357Z,19.69
2022-08-14T06:24:30.520Z,19.81
2022-08-14T06:27:06.478Z,19.93
2022-08-14T06:29:39.150Z,20.03
2022-08-14T06:32:38.854Z,20.10
2022-08-14T06:35:02.140Z,20.19
2022-08-14T06:37:59.702Z,20.26
2022-08-14T06:40:35.697Z,20.37
2022-08-14T06:43:09.822Z,20.49
2022-08-14T06:45:42.019Z,20.61
2022-08-14T06:48:19.340Z,20.69
2022-08-14T06:50:51.183Z,20.83
2022-08-14T06:53:20.029Z,20.95
2022-08-14T06:55:58.440Z,21.05
2022-08-14T06:58:32.169Z,21.14
2022-08-14T07:01:39.280Z,21.23
2022-08-14T07:04:25.444Z,21.31
2022-08-14T07:06:54.819Z,21.40
2022-08-14T07:09:28.410Z,21.50
2022-08-14T07:12:55.164Z,21.63
2022-08-14T07:15:02.124Z,21.80
2022-08-14T07:17:32.110Z,21.91
2022-08-14T07:20:02.502Z,22.02
2022-08-14T07:22:32.960Z,22.18
2022-08-14T07:25:19.707Z,22.35
2022-08-14T07:27:48.110Z,22.52
2022-08-14T07:30:34.208Z,22.63
2022-08-14T07:33:04.924Z,22.75
2022-08-14T07:35:37.374Z,22.86
2022-08-14T07:38:18.664Z,22.92
2022-08-14T07:40:52.987Z,23.01
2022-08-14T07:43:22.083Z,23.03
2022-08-14T07:45:53.924Z,23.09
2022-08-14T07:48:25.115Z,23.24
2022-08-14T07:50:59.466Z,23.30
2022-08-14T07:53:36.724Z,23.43
2022-08-14T07:56:43.855Z,23.58
2022-08-14T07:58:58.988Z,23.74
2022-08-14T08:01:30.981Z,23.96
2022-08-14T08:04:03.373Z,24.09
2022-08-14T08:06:31.910Z,24.19
2022-08-14T08:09:01.130Z,24.37
2022-08-14T08:11:35.000Z,24.45
2022-08-14T08:14:10.658Z,24.48
2022-08-14T08:16:47.563Z,24.59
2022-08-14T08:19:20.585Z,24.74
2022-08-14T08:21:49.397Z,24.78
2022-08-14T08:24:19.797Z,24.91
2022-08-14T08:26:50.609Z,24.95
2022-08-14T08:29:22.458Z,25.04
2022-08-14T08:32:01.931Z,25.12
2022-08-14T08:34:46.774Z,25.28
2022-08-14T08:37:15.837Z,25.42
2022-08-14T08:40:03.266Z,25.60
2022-08-14T08:42:41.243Z,25.70
2022-08-14T08:45:17.233Z,25.64
2022-08-14T08:47:46.439Z,25.86
2022-08-14T08:50:31.746Z,25.93
2022-08-14T08:53:04.331Z,26.08
2022-08-14T08:55:44.377Z,26.25
2022-08-14T08:58:20.291Z,26.47
2022-08-14T09:01:00.317Z,26.61
2022-08-14T09:03:30.189Z,26.57
2022-08-14T09:06:09.533Z,26.72
2022-08-14T09:08:54.133Z,26.79
2022-08-14T09:11:25.233Z,26.93
2022-08-14T09:13:55.194Z,26.92
2022-08-14T09:16:25.895Z,27.17
2022-08-14T09:18:55.268Z,27.44
2022-08-14T09:21:24.939Z,27.55
2022-08-14T09:24:28.442Z,27.81
2022-08-14T09:26:49.119Z,27.86
2022-08-14T09:29:19.844Z,27.66
2022-08-14T09:31:57.498Z,27.61
2022-08-14T09:34:56.729Z,27.75
2022-08-14T09:37:53.798Z,27.89
2022-08-14T09:40:29.381Z,28.13
2022-08-14T09:43:02.798Z,28.18
2022-08-14T09:45:52.533Z,28.25
2022-08-14T09:48:30.242Z,28.11
2022-08-14T09:54:19.268Z,28.02
2022-08-14T09:56:59.360Z,28.15
2022-08-14T09:59:33.466Z,28.19
2022-08-14T10:02:30.275Z,28.35
2022-08-14T10:05:11.791Z,28.70
2022-08-14T10:07:53.711Z,28.87
2022-08-14T10:10:41.626Z,29.21
2022-08-14T10:13:26.855Z,29.10
2022-08-14T10:16:00.235Z,29.40
2022-08-14T10:18:28.550Z,29.22
2022-08-14T10:21:01.705Z,28.79
2022-08-14T10:23:42.825Z,28.79
2022-08-14T10:26:22.608Z,28.40
2022-08-14T10:29:20.129Z,28.87
2022-08-14T10:31:59.664Z,29.28
2022-08-14T10:34:37.519Z,29.49
2022-08-14T10:37:14.503Z,29.63
2022-08-14T10:40:01.453Z,29.86
2022-08-14T10:42:39.096Z,29.99
2022-08-14T10:45:22.219Z,29.89
2022-08-14T10:48:07.880Z,29.48
2022-08-14T10:50:50.507Z,29.26
2022-08-14T10:53:30.564Z,29.36
2022-08-14T10:56:05.473Z,29.44
2022-08-14T10:58:35.069Z,29.47
2022-08-14T11:01:05.843Z,29.12
2022-08-14T11:03:56.008Z,29.09
2022-08-14T11:06:25.480Z,29.22
2022-08-14T11:08:55.881Z,29.38
2022-08-14T11:11:37.082Z,29.49
2022-08-14T11:14:09.450Z,29.47
2022-08-14T11:16:40.695Z,29.92
2022-08-14T11:19:12.169Z,30.49
2022-08-14T11:21:45.872Z,31.14
2022-08-14T11:24:53.995Z,31.57
2022-08-14T11:27:08.200Z,31.02
2022-08-14T11:29:41.406Z,31.31
2022-08-14T11:32:09.869Z,31.59
2022-08-14T11:34:38.259Z,32.08
2022-08-14T11:37:22.863Z,32.49
2022-08-14T11:39:57.153Z,33.05
2022-08-14T11:42:58.491Z,33.13
2022-08-14T11:45:18.616Z,33.68
2022-08-14T11:48:12.843Z,33.51
2022-08-14T11:50:41.547Z,33.61
2022-08-14T11:53:20.445Z,33.51
2022-08-14T11:55:55.580Z,34.03
2022-08-14T11:58:29.473Z,33.99
2022-08-14T12:01:01.978Z,33.68
2022-08-14T12:03:52.269Z,33.09
2022-08-14T12:06:29.639Z,32.64
2022-08-14T12:09:08.703Z,32.70
2022-08-14T12:11:46.917Z,32.62
2022-08-14T12:14:30.733Z,32.05
2022-08-14T12:17:09.448Z,31.62
2022-08-14T12:20:09.377Z,31.24
2022-08-14T12:22:45.909Z,31.86
2022-08-14T12:25:24.944Z,32.42
2022-08-14T12:27:59.101Z,33.44
2022-08-14T12:30:43.042Z,33.98
2022-08-14T12:33:34.586Z,33.39
2022-08-14T12:36:07.386Z,32.83
2022-08-14T12:38:45.176Z,32.73
2022-08-14T12:41:21.173Z,32.41
2022-08-14T12:43:55.688Z,32.44
2022-08-14T12:46:27.036Z,32.16
2022-08-14T12:48:59.216Z,31.83
2022-08-14T12:51:30.901Z,31.40
2022-08-14T12:54:00.539Z,31.48
2022-08-14T12:56:34.006Z,31.17
2022-08-14T12:59:04.671Z,31.15
2022-08-14T13:01:59.159Z,31.18
2022-08-14T13:04:23.193Z,30.97
2022-08-14T13:06:53.079Z,30.66
2022-08-14T13:09:23.112Z,30.25
2022-08-14T13:11:58.967Z,30.10
2022-08-14T13:14:44.710Z,30.11
2022-08-14T13:17:13.078Z,29.92
2022-08-14T13:19:42.647Z,30.08
2022-08-14T13:22:28.754Z,30.06
2022-08-14T13:25:00.260Z,30.11
2022-08-14T13:27:39.185Z,30.72
2022-08-14T13:30:21.328Z,31.13
2022-08-14T13:32:53.615Z,32.77
2022-08-14T13:35:22.431Z,33.39
2022-08-14T13:37:52.449Z,33.51
2022-08-14T13:40:26.295Z,33.86
2022-08-14T13:42:57.244Z,34.42
2022-08-14T13:45:33.953Z,34.24
2022-08-14T13:48:27.213Z,33.48
2022-08-14T13:51:10.625Z,33.89
2022-08-14T13:54:07.231Z,34.25
2022-08-14T13:56:41.922Z,34.35
2022-08-14T13:59:11.179Z,34.88
2022-08-14T14:01:43.377Z,34.66
2022-08-14T14:04:19.136Z,35.33
2022-08-14T14:06:51.224Z,35.55
2022-08-14T14:09:52.438Z,35.89
2022-08-14T14:12:36.718Z,35.31
2022-08-14T14:15:14.836Z,35.69
2022-08-14T14:17:47.456Z,35.68
2022-08-14T14:20:35.023Z,35.93
2022-08-14T14:23:12.121Z,35.84
2022-08-14T14:25:46.443Z,36.22
2022-08-14T14:28:24.584Z,36.20
2022-08-14T14:30:57.512Z,36.37
2022-08-14T14:33:49.549Z,36.27
2022-08-14T14:36:26.507Z,34.84
2022-08-14T14:38:58.027Z,34.95
2022-08-14T14:41:37.397Z,34.27
2022-08-14T14:44:09.162Z,33.66
2022-08-14T14:46:41.667Z,32.97
2022-08-14T14:49:14.604Z,32.34
2022-08-14T14:51:51.414Z,32.19
2022-08-14T14:54:31.087Z,31.90
2022-08-14T14:57:08.994Z,30.84
2022-08-14T14:59:37.616Z,30.99
2022-08-14T15:02:09.325Z,30.63
2022-08-14T15:04:43.359Z,30.18
2022-08-14T15:07:12.554Z,29.71
2022-08-14T15:09:41.564Z,29.39
2022-08-14T15:12:34.507Z,29.08
2022-08-14T15:15:09.054Z,28.84
2022-08-14T15:17:40.979Z,28.71
2022-08-14T15:20:16.965Z,28.32
2022-08-14T15:22:51.057Z,27.37
2022-08-14T15:25:19.609Z,26.93
2022-08-14T15:27:54.544Z,26.61
2022-08-14T15:30:32.050Z,25.57
2022-08-14T15:33:00.730Z,25.16
2022-08-14T15:35:34.185Z,24.57
2022-08-14T15:38:13.791Z,24.09
2022-08-14T15:40:51.724Z,23.63
2022-08-14T15:43:27.316Z,23.53
2022-08-14T15:45:56.930Z,23.37
2022-08-14T15:48:25.782Z,23.15
2022-08-14T15:50:58.629Z,22.80
2022-08-14T15:53:26.816Z,22.46
2022-08-14T15:55:59.821Z,21.93
2022-08-14T15:58:28.151Z,21.31
2022-08-14T16:01:22.599Z,20.74
2022-08-14T16:04:03.704Z,20.54
2022-08-14T16:06:35.343Z,20.53
2022-08-14T16:09:10.647Z,20.65
2022-08-14T16:11:47.465Z,20.72
2022-08-14T16:14:24.171Z,20.83
2022-08-14T16:16:59.981Z,20.86
2022-08-14T16:19:44.333Z,20.89
2022-08-14T16:23:10.503Z,20.82
2022-08-14T16:25:04.555Z,20.74
2022-08-14T16:27:39.152Z,20.68
2022-08-14T16:30:24.623Z,20.62
2022-08-14T16:32:56.828Z,20.59
2022-08-14T16:35:42.404Z,20.55
2022-08-14T16:38:45.274Z,20.56
2022-08-14T16:41:18.193Z,20.55
2022-08-14T16:43:54.111Z,20.36
2022-08-14T16:46:31.725Z,20.03
2022-08-14T16:49:04.913Z,19.83
2022-08-14T16:51:36.481Z,19.75
2022-08-14T16:54:34.223Z,19.65
2022-08-14T16:57:22.961Z,19.57
2022-08-14T16:59:55.831Z,19.44
2022-08-14T17:02:39.213Z,19.48
2022-08-14T17:05:24.872Z,19.48
2022-08-14T17:08:31.643Z,19.40
2022-08-14T17:11:10.592Z,19.34
2022-08-14T17:13:58.408Z,19.32
2022-08-14T17:16:36.881Z,19.32
2022-08-14T17:19:09.910Z,19.30
2022-08-14T17:21:47.564Z,19.28
2022-08-14T17:24:57.703Z,19.25
2022-08-14T17:27:10.604Z,19.22
2022-08-14T17:29:44.839Z,19.20
2022-08-14T17:35:57.947Z,19.07
2022-08-14T17:38:38.621Z,19.07
2022-08-14T17:41:24.084Z,19.08
2022-08-14T17:44:13.198Z,19.07
2022-08-14T17:46:48.155Z,19.09
2022-08-14T17:49:23.764Z,19.07
2022-08-14T17:52:01.921Z,19.07
2022-08-14T17:54:37.943Z,19.04
2022-08-14T17:57:13.197Z,19.03
2022-08-14T17:59:44.709Z,19.05
2022-08-14T18:02:16.565Z,19.04
2022-08-14T18:04:45.999Z,19.01
2022-08-14T18:07:50.381Z,18.98
2022-08-14T18:10:54.851Z,18.97
2022-08-14T18:12:57.380Z,18.94
2022-08-14T18:15:37.250Z,18.94
2022-08-14T18:18:09.007Z,18.90
2022-08-14T18:21:39.795Z,18.86
2022-08-14T18:23:28.442Z,18.81
2022-08-14T18:25:58.736Z,18.75
2022-08-14T18:28:47.994Z,18.73
2022-08-14T18:31:22.792Z,18.68
2022-08-14T18:33:55.651Z,18.64
2022-08-14T18:36:49.061Z,18.66
2022-08-14T18:39:26.030Z,18.66
2022-08-14T18:42:23.077Z,18.66
2022-08-14T18:44:54.906Z,18.66
2022-08-14T18:47:25.427Z,18.69
2022-08-14T18:49:57.872Z,18.65
2022-08-14T18:52:37.566Z,18.68
2022-08-14T18:55:16.721Z,18.65
2022-08-14T18:58:26.695Z,18.66
2022-08-14T19:00:58.744Z,18.65
2022-08-14T19:03:37.142Z,18.68
2022-08-14T19:06:11.200Z,18.68
2022-08-14T19:08:47.791Z,18.65
2022-08-14T19:11:39.879Z,18.65
2022-08-14T19:14:14.352Z,18.62
2022-08-14T19:16:48.338Z,18.56
2022-08-14T19:19:24.053Z,18.47
2022-08-14T19:21:56.796Z,18.43
2022-08-14T19:24:33.882Z,18.40
2022-08-14T19:27:19.613Z,18.32
2022-08-14T19:30:23.407Z,18.32
2022-08-14T19:32:57.073Z,18.24
2022-08-14T19:35:48.569Z,18.13
2022-08-14T19:38:46.535Z,18.07
2022-08-14T19:41:16.601Z,18.01
2022-08-14T19:43:56.633Z,17.94
2022-08-14T19:46:38.703Z,17.94
2022-08-14T19:49:21.557Z,17.90
2022-08-14T19:51:51.479Z,17.85
2022-08-14T19:54:30.752Z,17.83
2022-08-14T19:57:00.007Z,17.77
2022-08-14T19:59:36.581Z,17.77
2022-08-14T20:02:05.905Z,17.70
2022-08-14T20:04:47.194Z,17.64
2022-08-14T20:07:59.421Z,17.59
2022-08-14T20:11:04.859Z,17.57
2022-08-14T20:13:32.032Z,17.53
2022-08-14T20:16:12.885Z,17.54
2022-08-14T20:18:50.792Z,17.53
2022-08-14T20:21:21.818Z,17.51
2022-08-14T20:23:50.232Z,17.47
2022-08-14T20:26:31.398Z,17.48
2022-08-14T20:29:04.838Z,17.48
2022-08-14T20:31:37.075Z,17.50
2022-08-14T20:34:18.691Z,17.53
2022-08-14T20:37:10.423Z,17.51
2022-08-14T20:39:43.667Z,17.46
2022-08-14T20:42:37.943Z,17.41
2022-08-14T20:45:23.511Z,17.39
2022-08-14T20:48:01.016Z,17.44
2022-08-14T20:50:30.302Z,17.46
2022-08-14T20:53:05.719Z,17.42
2022-08-14T20:55:41.526Z,17.40
2022-08-14T20:58:43.133Z,17.35
2022-08-14T21:01:18.671Z,17.33
2022-08-14T21:03:56.445Z,17.35
2022-08-14T21:07:22.917Z,17.37
2022-08-14T21:10:03.433Z,17.36
2022-08-14T21:12:34.013Z,17.35
2022-08-14T21:15:11.167Z,17.34
2022-08-14T21:17:43.063Z,17.37
2022-08-14T21:20:26.326Z,17.39
2022-08-14T21:23:00.675Z,17.38
2022-08-14T21:25:34.704Z,17.35
2022-08-14T21:28:08.616Z,17.34
2022-08-14T21:30:56.727Z,17.32
2022-08-14T21:33:25.201Z,17.34
2022-08-14T21:35:56.690Z,17.31
2022-08-14T21:38:31.144Z,17.31
2022-08-14T21:41:41.276Z,17.34
2022-08-14T21:44:17.551Z,17.27
2022-08-14T21:46:54.179Z,17.30
2022-08-14T21:49:34.089Z,17.27
2022-08-14T21:52:50.645Z,17.24
2022-08-14T21:55:08.535Z,17.15
2022-08-14T21:58:03.899Z,17.18
2022-08-14T22:00:42.482Z,17.15
2022-08-14T22:03:19.301Z,17.18
2022-08-14T22:05:57.758Z,17.21
2022-08-14T22:08:27.321Z,17.23
2022-08-14T22:10:56.801Z,17.23
2022-08-14T22:13:32.361Z,17.20
2022-08-14T22:16:02.347Z,17.17
2022-08-14T22:18:31.178Z,17.15
2022-08-14T22:21:00.528Z,17.14
2022-08-14T22:23:35.518Z,17.12
2022-08-14T22:26:05.083Z,17.14
2022-08-14T22:28:33.733Z,17.18
2022-08-14T22:31:10.213Z,17.20
2022-08-14T22:33:40.328Z,17.20
2022-08-14T22:36:34.223Z,17.15
2022-08-14T22:39:11.091Z,17.18
2022-08-14T22:41:42.559Z,17.20
2022-08-14T22:44:15.055Z,17.26
2022-08-14T22:46:45.149Z,17.29
2022-08-14T22:50:28.525Z,17.26
2022-08-14T22:52:32.122Z,17.26
2022-08-14T22:54:55.609Z,17.29
2022-08-14T22:57:37.604Z,17.34
2022-08-14T23:00:25.622Z,17.34
2022-08-14T23:03:02.066Z,17.38
2022-08-14T23:05:38.823Z,17.37
2022-08-14T23:08:58.331Z,17.37
2022-08-14T23:11:02.977Z,17.39
2022-08-14T23:13:32.877Z,17.39
2022-08-14T23:16:01.005Z,17.40
2022-08-14T23:18:30.380Z,17.41
2022-08-14T23:20:58.526Z,17.43
2022-08-14T23:23:27.347Z,17.44
2022-08-14T23:25:59.656Z,17.42
2022-08-14T23:28:34.615Z,17.45
2022-08-14T23:31:34.547Z,17.47
2022-08-14T23:34:09.333Z,17.46
2022-08-14T23:36:53.295Z,17.48
2022-08-14T23:39:30.050Z,17.54
2022-08-14T23:42:09.633Z,17.57
2022-08-14T23:44:38.990Z,17.57
2022-08-14T23:47:11.800Z,17.59
2022-08-14T23:50:00.411Z,17.58
2022-08-14T23:52:55.632Z,17.59
2022-08-14T23:55:25.605Z,17.57
2022-08-14T23:57:57.697Z,17.57
